createdAt,value
2023-02-12T00:00:19.998Z,4.94
2023-02-12T00:02:56.248Z,4.92
2023-02-12T00:05:32.187Z,4.64
2023-02-12T00:08:03.509Z,4.96
2023-02-12T00:10:41.195Z,4.89
2023-02-12T00:13:17.503Z,4.94
2023-02-12T00:15:53.103Z,4.96
2023-02-12T00:18:26.272Z,5.00
2023-02-12T00:20:54.889Z,4.97
2023-02-12T00:23:23.580Z,4.94
2023-02-12T00:25:51.707Z,4.89
2023-02-12T00:28:20.353Z,4.86
2023-02-12T00:30:51.024Z,4.81
2023-02-12T00:33:31.790Z,4.78
2023-02-12T00:36:10.462Z,4.87
2023-02-12T00:38:38.693Z,4.83
2023-02-12T00:41:19.263Z,4.86
2023-02-12T00:43:54.494Z,4.86
2023-02-12T00:46:25.201Z,4.82
2023-02-12T00:48:52.946Z,4.82
2023-02-12T00:51:20.742Z,4.81
2023-02-12T00:53:49.572Z,4.89
2023-02-12T00:56:17.351Z,4.90
2023-02-12T00:58:45.129Z,4.96
2023-02-12T01:01:12.881Z,4.92
2023-02-12T01:03:41.897Z,5.04
2023-02-12T01:06:09.649Z,5.08
2023-02-12T01:08:37.339Z,5.16
2023-02-12T01:11:06.216Z,5.10
2023-02-12T01:13:34.811Z,5.16
2023-02-12T01:16:04.464Z,5.14
2023-02-12T01:18:32.188Z,5.14
2023-02-12T01:21:01.438Z,5.09
2023-02-12T01:23:29.269Z,5.08
2023-02-12T01:25:57.216Z,5.14
2023-02-12T01:28:25.024Z,5.11
2023-02-12T01:30:52.822Z,5.06
2023-02-12T01:33:21.057Z,5.11
2023-02-12T01:35:48.659Z,5.19
2023-02-12T01:38:17.769Z,5.23
2023-02-12T01:40:45.496Z,5.19
2023-02-12T01:43:13.521Z,5.26
2023-02-12T01:45:48.074Z,5.16
2023-02-12T01:48:17.286Z,5.17
2023-02-12T01:50:46.618Z,5.05
2023-02-12T01:53:20.000Z,5.16
2023-02-12T01:55:56.541Z,5.14
2023-02-12T01:58:25.713Z,5.10
2023-02-12T02:00:53.510Z,5.09
2023-02-12T02:03:21.356Z,5.15
2023-02-12T02:05:55.684Z,5.15
2023-02-12T02:08:23.736Z,4.99
2023-02-12T02:10:52.848Z,5.06
2023-02-12T02:13:38.006Z,5.07
2023-02-12T02:16:12.778Z,5.05
2023-02-12T02:18:45.432Z,4.95
2023-02-12T02:21:25.337Z,5.07
2023-02-12T02:24:10.666Z,4.94
2023-02-12T02:27:07.161Z,4.91
2023-02-12T02:30:03.217Z,4.84
2023-02-12T02:32:33.714Z,4.83
2023-02-12T02:35:04.504Z,4.88
2023-02-12T02:37:34.720Z,4.88
2023-02-12T02:40:08.711Z,4.85
2023-02-12T02:42:39.375Z,4.95
2023-02-12T02:45:10.725Z,5.00
2023-02-12T02:47:42.865Z,4.89
2023-02-12T02:50:13.597Z,4.98
2023-02-12T02:52:44.758Z,4.99
2023-02-12T02:55:14.311Z,4.80
2023-02-12T02:57:46.556Z,5.06
2023-02-12T03:00:16.438Z,5.07
2023-02-12T03:02:50.078Z,5.05
2023-02-12T03:05:20.781Z,5.11
2023-02-12T03:07:52.286Z,5.07
2023-02-12T03:10:21.936Z,5.07
2023-02-12T03:12:53.521Z,5.08
2023-02-12T03:15:24.506Z,5.00
2023-02-12T03:17:53.496Z,4.76
2023-02-12T03:20:25.179Z,4.90
2023-02-12T03:22:57.105Z,4.84
2023-02-12T03:25:27.897Z,4.98
2023-02-12T03:28:00.700Z,5.02
2023-02-12T03:30:39.034Z,4.93
2023-02-12T03:33:16.586Z,4.90
2023-02-12T03:35:52.320Z,4.99
2023-02-12T03:38:28.658Z,5.09
2023-02-12T03:40:59.661Z,5.10
2023-02-12T03:43:30.662Z,5.05
2023-02-12T03:46:01.241Z,5.10
2023-02-12T03:48:32.227Z,5.08
2023-02-12T03:51:03.038Z,5.08
2023-02-12T03:53:31.452Z,5.07
2023-02-12T03:56:03.665Z,5.01
2023-02-12T03:58:34.005Z,4.95
2023-02-12T04:01:02.236Z,4.93
2023-02-12T04:03:32.280Z,5.00
2023-02-12T04:05:59.877Z,5.04
2023-02-12T04:08:28.575Z,5.05
2023-02-12T04:11:05.722Z,5.02
2023-02-12T04:13:39.728Z,5.10
2023-02-12T04:16:16.971Z,5.08
2023-02-12T04:18:49.453Z,5.14
2023-02-12T04:21:23.613Z,5.13
2023-02-12T04:23:59.674Z,5.11
2023-02-12T04:26:33.584Z,5.08
2023-02-12T04:29:09.405Z,5.12
2023-02-12T04:31:40.229Z,5.10
2023-02-12T04:34:14.020Z,5.11
2023-02-12T04:36:46.496Z,5.07
2023-02-12T04:39:19.020Z,5.06
2023-02-12T04:41:46.623Z,5.09
2023-02-12T04:44:16.105Z,5.12
2023-02-12T04:46:43.747Z,5.18
2023-02-12T04:49:16.490Z,5.18
2023-02-12T04:51:44.600Z,5.19
2023-02-12T04:54:12.208Z,5.12
2023-02-12T04:56:39.829Z,5.19
2023-02-12T04:59:07.618Z,5.19
2023-02-12T05:01:36.138Z,5.15
2023-02-12T05:04:04.266Z,5.15
2023-02-12T05:06:36.436Z,5.13
2023-02-12T05:09:05.091Z,5.13
2023-02-12T05:11:32.829Z,5.11
2023-02-12T05:14:00.782Z,4.95
2023-02-12T05:16:28.500Z,4.89
2023-02-12T05:18:56.114Z,4.85
2023-02-12T05:21:23.879Z,4.86
2023-02-12T05:23:52.902Z,4.89
2023-02-12T05:26:21.983Z,4.92
2023-02-12T05:28:49.633Z,4.94
2023-02-12T05:31:21.150Z,5.02
2023-02-12T05:33:49.653Z,4.94
2023-02-12T05:36:20.010Z,4.88
2023-02-12T05:38:47.804Z,4.89
2023-02-12T05:41:18.472Z,4.88
2023-02-12T05:43:49.478Z,4.92
2023-02-12T05:46:18.483Z,4.92
2023-02-12T05:48:46.730Z,5.05
2023-02-12T05:51:16.335Z,5.00
2023-02-12T05:53:43.929Z,4.99
2023-02-12T05:56:13.989Z,5.07
2023-02-12T05:58:45.024Z,4.98
2023-02-12T06:01:14.187Z,4.88
2023-02-12T06:03:41.908Z,4.88
2023-02-12T06:06:09.713Z,4.90
2023-02-12T06:08:37.913Z,4.91
2023-02-12T06:11:07.329Z,4.85
2023-02-12T06:13:35.394Z,4.74
2023-02-12T06:16:04.695Z,4.94
2023-02-12T06:18:32.721Z,4.77
2023-02-12T06:21:00.381Z,4.67
2023-02-12T06:23:27.977Z,4.77
2023-02-12T06:25:58.194Z,4.75
2023-02-12T06:28:25.968Z,4.80
2023-02-12T06:30:53.787Z,4.80
2023-02-12T06:33:23.018Z,4.73
2023-02-12T06:35:50.699Z,4.68
2023-02-12T06:38:18.283Z,4.73
2023-02-12T06:40:45.861Z,4.60
2023-02-12T06:43:13.604Z,4.82
2023-02-12T06:45:41.247Z,4.78
2023-02-12T06:48:08.992Z,4.77
2023-02-12T06:50:38.049Z,4.74
2023-02-12T06:53:05.702Z,4.78
2023-02-12T06:55:33.218Z,4.84
2023-02-12T06:58:00.832Z,4.83
2023-02-12T07:00:28.735Z,4.82
2023-02-12T07:02:56.934Z,4.86
2023-02-12T07:05:25.306Z,4.71
2023-02-12T07:07:54.263Z,4.86
2023-02-12T07:10:21.821Z,4.76
2023-02-12T07:12:49.510Z,4.77
2023-02-12T07:15:17.160Z,4.80
2023-02-12T07:17:44.722Z,4.81
2023-02-12T07:20:13.142Z,4.85
2023-02-12T07:22:40.750Z,4.76
2023-02-12T07:25:09.758Z,4.69
2023-02-12T07:27:38.226Z,4.77
2023-02-12T07:30:06.708Z,4.76
2023-02-12T07:32:34.711Z,4.85
2023-02-12T07:35:02.419Z,4.94
2023-02-12T07:37:30.055Z,5.00
2023-02-12T07:39:57.858Z,4.95
2023-02-12T07:42:26.794Z,5.01
2023-02-12T07:44:54.371Z,5.10
2023-02-12T07:47:24.987Z,5.09
2023-02-12T07:49:52.722Z,5.09
2023-02-12T07:52:20.285Z,5.13
2023-02-12T07:54:48.848Z,5.15
2023-02-12T07:57:16.448Z,5.16
2023-02-12T07:59:46.034Z,5.19
2023-02-12T08:02:13.686Z,5.10
2023-02-12T08:04:41.369Z,5.31
2023-02-12T08:07:09.011Z,5.30
2023-02-12T08:09:36.674Z,5.32
2023-02-12T08:12:04.313Z,5.23
2023-02-12T08:14:32.094Z,5.34
2023-02-12T08:17:01.016Z,5.31
2023-02-12T08:19:28.719Z,5.36
2023-02-12T08:21:57.423Z,5.40
2023-02-12T08:24:25.441Z,5.36
2023-02-12T08:26:53.240Z,5.45
2023-02-12T08:29:22.703Z,5.50
2023-02-12T08:31:51.494Z,5.50
2023-02-12T08:34:22.427Z,5.57
2023-02-12T08:36:51.144Z,5.48
2023-02-12T08:39:19.431Z,5.45
2023-02-12T08:41:47.613Z,5.29
2023-02-12T08:44:16.100Z,5.50
2023-02-12T08:46:46.908Z,5.71
2023-02-12T08:49:15.832Z,5.63
2023-02-12T08:51:46.699Z,5.62
2023-02-12T08:54:15.468Z,5.51
2023-02-12T08:56:45.141Z,5.67
2023-02-12T08:59:13.806Z,5.72
2023-02-12T09:01:42.126Z,5.80
2023-02-12T09:04:11.071Z,5.79
2023-02-12T09:06:38.752Z,5.63
2023-02-12T09:09:08.189Z,5.87
2023-02-12T09:11:37.648Z,5.72
2023-02-12T09:14:07.464Z,5.84
2023-02-12T09:16:37.343Z,5.93
2023-02-12T09:19:05.372Z,5.89
2023-02-12T09:21:33.182Z,5.90
2023-02-12T09:24:02.132Z,5.98
2023-02-12T09:26:31.421Z,5.98
2023-02-12T09:28:59.578Z,5.91
2023-02-12T09:31:29.249Z,6.08
2023-02-12T09:33:59.794Z,5.99
2023-02-12T09:36:27.688Z,5.98
2023-02-12T09:38:55.419Z,5.98
2023-02-12T09:41:59.372Z,6.13
2023-02-12T09:44:33.741Z,6.17
2023-02-12T09:47:04.562Z,6.24
2023-02-12T09:49:46.661Z,6.22
2023-02-12T09:52:16.708Z,6.21
2023-02-12T09:54:45.288Z,6.34
2023-02-12T09:57:18.779Z,6.24
2023-02-12T09:59:49.673Z,6.21
2023-02-12T10:02:19.091Z,6.37
2023-02-12T10:05:00.080Z,6.38
2023-02-12T10:07:38.236Z,6.53
2023-02-12T10:10:24.659Z,6.50
2023-02-12T10:12:56.291Z,6.44
2023-02-12T10:15:39.174Z,6.44
2023-02-12T10:18:19.120Z,6.53
2023-02-12T10:20:54.140Z,6.40
2023-02-12T10:23:46.995Z,6.58
2023-02-12T10:26:20.056Z,6.72
2023-02-12T10:28:47.873Z,6.66
2023-02-12T10:31:31.458Z,6.72
2023-02-12T10:33:59.554Z,6.71
2023-02-12T10:36:39.887Z,6.71
2023-02-12T10:39:14.426Z,6.76
2023-02-12T10:41:45.432Z,6.89
2023-02-12T10:44:13.411Z,6.77
2023-02-12T10:46:42.427Z,6.94
2023-02-12T10:49:12.076Z,6.98
2023-02-12T10:51:48.718Z,7.02
2023-02-12T10:54:37.190Z,7.07
2023-02-12T10:57:11.883Z,6.98
2023-02-12T10:59:39.861Z,7.04
2023-02-12T11:02:20.513Z,7.21
2023-02-12T11:04:48.384Z,7.13
2023-02-12T11:07:16.407Z,7.11
2023-02-12T11:09:46.319Z,7.15
2023-02-12T11:12:21.382Z,7.17
2023-02-12T11:14:53.889Z,7.07
2023-02-12T11:17:27.036Z,7.03
2023-02-12T11:20:10.181Z,7.03
2023-02-12T11:22:38.106Z,7.23
2023-02-12T11:25:15.848Z,7.13
2023-02-12T11:27:43.526Z,7.23
2023-02-12T11:30:18.448Z,7.34
2023-02-12T11:32:49.281Z,7.36
2023-02-12T11:35:24.979Z,7.51
2023-02-12T11:37:55.420Z,7.62
2023-02-12T11:40:24.546Z,7.59
2023-02-12T11:42:54.896Z,7.66
2023-02-12T11:45:25.711Z,7.74
2023-02-12T11:47:54.797Z,7.70
2023-02-12T11:50:27.377Z,7.75
2023-02-12T11:52:58.835Z,7.77
2023-02-12T11:55:31.578Z,7.83
2023-02-12T11:58:04.482Z,7.80
2023-02-12T12:00:36.482Z,7.82
2023-02-12T12:03:12.242Z,7.84
2023-02-12T12:05:42.021Z,7.76
2023-02-12T12:08:16.752Z,7.91
2023-02-12T12:10:48.889Z,7.86
2023-02-12T12:13:25.077Z,7.80
2023-02-12T12:16:25.339Z,7.87
2023-02-12T12:19:15.383Z,8.07
2023-02-12T12:21:47.066Z,7.97
2023-02-12T12:24:16.869Z,8.03
2023-02-12T12:26:49.012Z,8.17
2023-02-12T12:29:20.850Z,8.07
2023-02-12T12:31:50.261Z,8.03
2023-02-12T12:34:21.053Z,8.07
2023-02-12T12:37:20.280Z,8.07
2023-02-12T12:39:58.949Z,8.16
2023-02-12T12:42:51.476Z,8.07
2023-02-12T12:45:29.721Z,8.05
2023-02-12T12:48:06.147Z,8.08
2023-02-12T12:50:49.528Z,7.97
2023-02-12T12:53:31.741Z,8.12
2023-02-12T12:56:22.888Z,8.24
2023-02-12T12:59:02.419Z,8.18
2023-02-12T13:02:13.977Z,8.04
2023-02-12T13:04:53.602Z,8.06
2023-02-12T13:07:37.680Z,8.12
2023-02-12T13:10:16.882Z,8.29
2023-02-12T13:12:55.992Z,8.15
2023-02-12T13:15:32.989Z,8.36
2023-02-12T13:18:07.769Z,8.38
2023-02-12T13:20:44.649Z,8.32
2023-02-12T13:23:17.183Z,8.40
2023-02-12T13:25:50.719Z,8.45
2023-02-12T13:28:24.993Z,8.30
2023-02-12T13:30:55.714Z,8.51
2023-02-12T13:33:26.077Z,8.45
2023-02-12T13:35:56.311Z,8.42
2023-02-12T13:38:34.719Z,8.44
2023-02-12T13:41:06.399Z,8.44
2023-02-12T13:44:01.871Z,8.50
2023-02-12T13:46:35.136Z,8.66
2023-02-12T13:49:15.532Z,8.49
2023-02-12T13:51:46.255Z,8.46
2023-02-12T13:54:46.509Z,8.38
2023-02-12T13:57:16.799Z,8.34
2023-02-12T13:59:53.893Z,8.36
2023-02-12T14:02:46.337Z,8.23
2023-02-12T14:07:51.555Z,8.21
2023-02-12T14:10:27.119Z,8.24
2023-02-12T14:12:57.070Z,8.42
2023-02-12T14:15:32.317Z,8.43
2023-02-12T14:18:08.163Z,8.48
2023-02-12T14:20:38.044Z,8.33
2023-02-12T14:23:25.028Z,8.32
2023-02-12T14:26:02.457Z,8.32
2023-02-12T14:28:42.864Z,8.22
2023-02-12T14:31:31.807Z,8.31
2023-02-12T14:34:49.144Z,8.33
2023-02-12T14:37:38.180Z,8.28
2023-02-12T14:40:40.527Z,8.10
2023-02-12T14:43:29.509Z,8.19
2023-02-12T14:45:59.016Z,8.24
2023-02-12T14:48:52.153Z,8.06
2023-02-12T14:51:23.285Z,8.09
2023-02-12T14:53:52.220Z,7.87
2023-02-12T14:56:21.778Z,8.03
2023-02-12T14:58:52.077Z,7.82
2023-02-12T15:01:19.909Z,8.09
2023-02-12T15:03:50.591Z,8.02
2023-02-12T15:06:19.874Z,8.02
2023-02-12T15:08:53.206Z,7.87
2023-02-12T15:11:24.869Z,7.97
2023-02-12T15:13:57.049Z,7.96
2023-02-12T15:16:39.806Z,7.99
2023-02-12T15:19:18.596Z,7.82
2023-02-12T15:21:47.066Z,7.87
2023-02-12T15:24:15.614Z,7.88
2023-02-12T15:26:45.388Z,7.94
2023-02-12T15:29:22.552Z,7.76
2023-02-12T15:31:55.540Z,7.68
2023-02-12T15:34:25.745Z,7.69
2023-02-12T15:36:53.544Z,7.79
2023-02-12T15:39:22.919Z,7.82
2023-02-12T15:41:50.908Z,7.79
2023-02-12T15:44:28.703Z,7.89
2023-02-12T15:47:11.884Z,7.71
2023-02-12T15:49:41.289Z,7.76
2023-02-12T15:52:10.664Z,7.77
2023-02-12T15:54:39.399Z,7.86
2023-02-12T15:57:15.331Z,7.74
2023-02-12T15:59:44.455Z,7.65
2023-02-12T16:02:20.674Z,7.65
2023-02-12T16:04:48.810Z,7.52
2023-02-12T16:07:17.025Z,7.67
2023-02-12T16:09:45.391Z,7.57
2023-02-12T16:12:14.608Z,7.54
2023-02-12T16:14:44.747Z,7.64
2023-02-12T16:17:22.391Z,7.66
2023-02-12T16:19:57.966Z,7.62
2023-02-12T16:22:29.196Z,7.63
2023-02-12T16:24:57.445Z,7.49
2023-02-12T16:27:26.692Z,7.58
2023-02-12T16:29:57.897Z,7.69
2023-02-12T16:32:31.756Z,7.55
2023-02-12T16:35:01.040Z,7.52
2023-02-12T16:37:47.862Z,7.42
2023-02-12T16:40:27.578Z,7.50
2023-02-12T16:43:01.833Z,7.41
2023-02-12T16:45:42.541Z,7.38
2023-02-12T16:48:16.197Z,7.27
2023-02-12T16:50:50.004Z,7.20
2023-02-12T16:53:47.358Z,6.89
2023-02-12T16:56:18.686Z,7.03
2023-02-12T16:58:48.420Z,6.97
2023-02-12T17:01:20.660Z,6.92
2023-02-12T17:03:50.500Z,6.97
2023-02-12T17:06:20.094Z,7.01
2023-02-12T17:08:47.810Z,6.97
2023-02-12T17:11:17.748Z,6.93
2023-02-12T17:13:46.221Z,6.99
2023-02-12T17:16:18.881Z,6.89
2023-02-12T17:18:57.580Z,6.78
2023-02-12T17:21:27.054Z,6.64
2023-02-12T17:23:54.984Z,6.45
2023-02-12T17:26:23.139Z,6.61
2023-02-12T17:28:50.834Z,6.59
2023-02-12T17:31:19.517Z,6.60
2023-02-12T17:33:47.622Z,6.27
2023-02-12T17:36:16.848Z,6.42
2023-02-12T17:38:44.617Z,6.31
2023-02-12T17:41:12.653Z,6.32
2023-02-12T17:43:40.299Z,6.23
2023-02-12T17:46:10.319Z,6.18
2023-02-12T17:48:38.091Z,6.21
2023-02-12T17:51:06.122Z,6.19
2023-02-12T17:53:35.135Z,6.23
2023-02-12T17:56:02.782Z,6.19
2023-02-12T17:58:31.029Z,6.09
2023-02-12T18:00:59.218Z,6.03
2023-02-12T18:03:27.065Z,5.98
2023-02-12T18:05:54.762Z,5.94
2023-02-12T18:08:22.415Z,5.94
2023-02-12T18:10:51.339Z,5.77
2023-02-12T18:13:18.988Z,5.75
2023-02-12T18:15:46.688Z,5.66
2023-02-12T18:18:16.580Z,5.66
2023-02-12T18:20:44.587Z,5.61
2023-02-12T18:23:12.511Z,5.58
2023-02-12T18:25:42.315Z,5.57
2023-02-12T18:28:12.751Z,5.57
2023-02-12T18:30:42.745Z,5.50
2023-02-12T18:33:11.010Z,5.50
2023-02-12T18:35:41.615Z,5.49
2023-02-12T18:38:09.240Z,5.45
2023-02-12T18:40:40.693Z,5.43
2023-02-12T18:43:08.278Z,5.39
2023-02-12T18:45:39.938Z,5.41
2023-02-12T18:48:09.212Z,5.31
2023-02-12T18:50:36.864Z,5.39
2023-02-12T18:53:04.479Z,5.34
2023-02-12T18:58:10.121Z,5.17
2023-02-12T19:00:40.130Z,5.40
2023-02-12T19:03:07.970Z,5.39
2023-02-12T19:05:35.647Z,5.11
2023-02-12T19:08:03.458Z,5.33
2023-02-12T19:10:31.126Z,5.27
2023-02-12T19:12:58.965Z,5.28
2023-02-12T19:15:26.550Z,5.37
2023-02-12T19:17:55.613Z,5.08
2023-02-12T19:20:23.239Z,5.34
2023-02-12T19:22:50.900Z,5.27
2023-02-12T19:25:18.567Z,5.25
2023-02-12T19:27:46.133Z,5.26
2023-02-12T19:30:14.497Z,5.29
2023-02-12T19:32:42.117Z,5.29
2023-02-12T19:35:11.110Z,5.30
2023-02-12T19:37:38.805Z,5.27
2023-02-12T19:40:07.628Z,5.30
2023-02-12T19:42:35.930Z,5.04
2023-02-12T19:45:03.568Z,5.26
2023-02-12T19:47:31.249Z,5.18
2023-02-12T19:49:58.839Z,5.33
2023-02-12T19:52:28.124Z,5.19
2023-02-12T19:54:55.722Z,5.27
2023-02-12T19:57:23.402Z,5.20
2023-02-12T19:59:51.051Z,5.30
2023-02-12T20:02:18.909Z,5.18
2023-02-12T20:04:47.406Z,5.11
2023-02-12T20:07:15.091Z,5.08
2023-02-12T20:09:44.240Z,5.15
2023-02-12T20:12:11.866Z,5.22
2023-02-12T20:14:39.492Z,5.08
2023-02-12T20:17:07.145Z,5.10
2023-02-12T20:19:34.808Z,5.09
2023-02-12T20:22:03.321Z,4.99
2023-02-12T20:24:32.568Z,5.09
2023-02-12T20:27:02.875Z,4.99
2023-02-12T20:29:30.695Z,4.99
2023-02-12T20:31:58.569Z,4.97
2023-02-12T20:34:26.330Z,4.95
2023-02-12T20:36:54.613Z,5.04
2023-02-12T20:39:23.132Z,4.90
2023-02-12T20:41:51.232Z,4.98
2023-02-12T20:44:21.860Z,4.85
2023-02-12T20:46:54.405Z,4.82
2023-02-12T20:49:24.490Z,4.86
2023-02-12T20:51:52.527Z,4.80
2023-02-12T20:54:20.201Z,4.79
2023-02-12T20:56:49.661Z,4.93
2023-02-12T20:59:18.306Z,4.89
2023-02-12T21:01:47.929Z,4.69
2023-02-12T21:04:17.668Z,5.01
2023-02-12T21:06:47.407Z,5.07
2023-02-12T21:09:15.414Z,4.99
2023-02-12T21:11:45.570Z,5.08
2023-02-12T21:14:23.519Z,5.09
2023-02-12T21:16:53.829Z,5.02
2023-02-12T21:19:22.486Z,5.23
2023-02-12T21:21:50.360Z,5.22
2023-02-12T21:24:21.512Z,5.22
2023-02-12T21:26:49.658Z,5.21
2023-02-12T21:29:17.818Z,5.26
2023-02-12T21:31:47.345Z,5.15
2023-02-12T21:34:17.704Z,5.19
2023-02-12T21:36:46.920Z,5.14
2023-02-12T21:39:24.329Z,5.16
2023-02-12T21:41:53.885Z,5.21
2023-02-12T21:44:23.252Z,5.12
2023-02-12T21:46:53.690Z,5.10
2023-02-12T21:49:28.009Z,5.14
2023-02-12T21:51:59.386Z,5.18
2023-02-12T21:54:27.816Z,5.17
2023-02-12T21:56:56.619Z,5.08
2023-02-12T21:59:25.010Z,5.19
2023-02-12T22:01:55.297Z,5.10
2023-02-12T22:04:24.484Z,5.05
2023-02-12T22:06:53.883Z,5.01
2023-02-12T22:09:23.613Z,4.88
2023-02-12T22:11:53.656Z,4.95
2023-02-12T22:14:23.228Z,4.90
2023-02-12T22:16:51.126Z,4.79
2023-02-12T22:19:21.071Z,4.83
2023-02-12T22:21:52.488Z,4.79
2023-02-12T22:24:21.068Z,4.90
2023-02-12T22:26:49.750Z,4.78
2023-02-12T22:29:18.232Z,4.68
2023-02-12T22:31:47.929Z,4.64
2023-02-12T22:34:17.950Z,4.60
2023-02-12T22:36:46.118Z,4.62
2023-02-12T22:39:19.636Z,4.47
2023-02-12T22:41:47.762Z,4.54
2023-02-12T22:44:21.399Z,4.36
2023-02-12T22:46:50.083Z,4.46
2023-02-12T22:49:18.066Z,4.42
2023-02-12T22:51:45.809Z,4.40
2023-02-12T22:54:16.167Z,4.34
2023-02-12T22:56:44.512Z,4.37
2023-02-12T22:59:14.988Z,4.37
2023-02-12T23:01:43.306Z,4.41
2023-02-12T23:04:15.566Z,4.30
2023-02-12T23:06:43.983Z,4.32
2023-02-12T23:09:14.395Z,4.30
2023-02-12T23:11:43.586Z,4.26
2023-02-12T23:14:11.400Z,4.25
2023-02-12T23:16:42.840Z,4.35
2023-02-12T23:19:11.106Z,4.36
2023-02-12T23:21:38.854Z,4.28
2023-02-12T23:24:07.099Z,4.27
2023-02-12T23:26:36.639Z,4.15
2023-02-12T23:29:05.691Z,4.29
2023-02-12T23:31:33.489Z,4.24
2023-02-12T23:34:01.479Z,4.25
2023-02-12T23:36:29.293Z,4.17
2023-02-12T23:38:57.012Z,3.86
2023-02-12T23:41:24.749Z,3.98
2023-02-12T23:43:52.406Z,4.13
2023-02-12T23:46:24.995Z,4.16
2023-02-12T23:48:52.693Z,4.19
2023-02-12T23:51:20.434Z,4.13
2023-02-12T23:53:49.057Z,4.25
2023-02-12T23:56:17.383Z,4.25
2023-02-12T23:58:45.138Z,4.20
